sensor_id;sensor_type;location;lat;lon;timestamp;pressure;altitude;pressure_sealevel;temperature;humidity
39357;BME280;25077;50.302;18.996;2022-07-29T00:01:35;98409.34;;;16.89;44.71
39357;BME280;25077;50.302;18.996;2022-07-29T00:04:37;98400.00;;;16.82;44.00
39357;BME280;25077;50.302;18.996;2022-07-29T00:07:39;98405.50;;;16.75;44.78
39357;BME280;25077;50.302;18.996;2022-07-29T00:10:41;98400.81;;;16.72;44.94
39357;BME280;25077;50.302;18.996;2022-07-29T00:13:45;98396.16;;;16.69;45.46
39357;BME280;25077;50.302;18.996;2022-07-29T00:16:48;98396.94;;;16.70;44.66
39357;BME280;25077;50.302;18.996;2022-07-29T00:19:50;98396.16;;;16.69;44.77
39357;BME280;25077;50.302;18.996;2022-07-29T00:22:52;98391.88;;;16.68;45.39
39357;BME280;25077;50.302;18.996;2022-07-29T00:25:54;98393.03;;;16.67;44.84
39357;BME280;25077;50.302;18.996;2022-07-29T00:28:58;98387.56;;;16.67;45.34
39357;BME280;25077;50.302;18.996;2022-07-29T00:32:00;98388.31;;;16.68;45.27
39357;BME280;25077;50.302;18.996;2022-07-29T00:35:02;98386.00;;;16.70;45.02
39357;BME280;25077;50.302;18.996;2022-07-29T00:38:21;98383.66;;;16.68;44.58
39357;BME280;25077;50.302;18.996;2022-07-29T00:41:23;98381.72;;;16.69;44.89
39357;BME280;25077;50.302;18.996;2022-07-29T00:44:26;98380.53;;;16.70;44.48
39357;BME280;25077;50.302;18.996;2022-07-29T00:47:28;98384.44;;;16.69;44.22
39357;BME280;25077;50.302;18.996;2022-07-29T00:50:31;98372.72;;;16.68;44.43
39357;BME280;25077;50.302;18.996;2022-07-29T00:53:33;98378.19;;;16.68;44.84
39357;BME280;25077;50.302;18.996;2022-07-29T00:56:37;98376.25;;;16.65;44.62
39357;BME280;25077;50.302;18.996;2022-07-29T00:59:40;98371.56;;;16.66;44.09
39357;BME280;25077;50.302;18.996;2022-07-29T01:02:43;98369.59;;;16.66;44.35
39357;BME280;25077;50.302;18.996;2022-07-29T01:05:45;98372.72;;;16.65;43.71
39357;BME280;25077;50.302;18.996;2022-07-29T01:08:48;98366.09;;;16.62;44.28
39357;BME280;25077;50.302;18.996;2022-07-29T01:11:51;98367.25;;;16.61;43.78
39357;BME280;25077;50.302;18.996;2022-07-29T01:14:55;98364.94;;;16.60;43.84
39357;BME280;25077;50.302;18.996;2022-07-29T01:18:02;98355.59;;;16.57;44.14
39357;BME280;25077;50.302;18.996;2022-07-29T01:21:21;98357.13;;;16.54;45.78
39357;BME280;25077;50.302;18.996;2022-07-29T01:24:49;98358.72;;;16.52;45.50
39357;BME280;25077;50.302;18.996;2022-07-29T01:28:17;98361.06;;;16.50;44.45
39357;BME280;25077;50.302;18.996;2022-07-29T01:31:30;98361.84;;;16.47;44.73
39357;BME280;25077;50.302;18.996;2022-07-29T01:34:40;98361.09;;;16.46;44.92
39357;BME280;25077;50.302;18.996;2022-07-29T01:37:46;98362.63;;;16.44;44.64
39357;BME280;25077;50.302;18.996;2022-07-29T01:40:53;98367.31;;;16.43;44.75
39357;BME280;25077;50.302;18.996;2022-07-29T01:43:57;98358.72;;;16.45;43.54
39357;BME280;25077;50.302;18.996;2022-07-29T01:47:07;98345.84;;;16.45;44.07
39357;BME280;25077;50.302;18.996;2022-07-29T01:50:16;98350.53;;;16.45;44.16
39357;BME280;25077;50.302;18.996;2022-07-29T01:53:23;98348.59;;;16.45;44.21
39357;BME280;25077;50.302;18.996;2022-07-29T01:56:27;98347.00;;;16.44;44.01
39357;BME280;25077;50.302;18.996;2022-07-29T01:59:34;98343.50;;;16.44;43.66
39357;BME280;25077;50.302;18.996;2022-07-29T02:02:40;98342.72;;;16.43;43.68
39357;BME280;25077;50.302;18.996;2022-07-29T02:05:46;98334.56;;;16.40;43.36
39357;BME280;25077;50.302;18.996;2022-07-29T02:08:49;98338.44;;;16.39;43.60
39357;BME280;25077;50.302;18.996;2022-07-29T02:11:53;98338.44;;;16.39;43.57
39357;BME280;25077;50.302;18.996;2022-07-29T02:14:57;98336.88;;;16.38;43.23
39357;BME280;25077;50.302;18.996;2022-07-29T02:18:07;98342.75;;;16.36;43.61
39357;BME280;25077;50.302;18.996;2022-07-29T02:21:09;98338.06;;;16.37;43.73
39357;BME280;25077;50.302;18.996;2022-07-29T02:24:13;98338.06;;;16.37;43.71
39357;BME280;25077;50.302;18.996;2022-07-29T02:27:17;98334.56;;;16.40;43.45
39357;BME280;25077;50.302;18.996;2022-07-29T02:30:21;98332.19;;;16.42;43.77
39357;BME280;25077;50.302;18.996;2022-07-29T02:33:26;98336.84;;;16.45;43.52
39357;BME280;25077;50.302;18.996;2022-07-29T02:36:29;98331.78;;;16.47;43.19
39357;BME280;25077;50.302;18.996;2022-07-29T02:39:34;98330.97;;;16.50;43.37
39357;BME280;25077;50.302;18.996;2022-07-29T02:42:37;98328.66;;;16.52;43.22
39357;BME280;25077;50.302;18.996;2022-07-29T02:45:40;98330.97;;;16.53;43.36
39357;BME280;25077;50.302;18.996;2022-07-29T02:48:49;98322.00;;;16.56;43.44
39357;BME280;25077;50.302;18.996;2022-07-29T02:51:55;98325.50;;;16.57;43.42
39357;BME280;25077;50.302;18.996;2022-07-29T02:55:01;98322.78;;;16.57;43.46
39357;BME280;25077;50.302;18.996;2022-07-29T02:58:10;98326.66;;;16.60;43.60
39357;BME280;25077;50.302;18.996;2022-07-29T03:01:18;98318.81;;;16.62;42.96
39357;BME280;25077;50.302;18.996;2022-07-29T03:04:24;98319.59;;;16.62;42.83
39357;BME280;25077;50.302;18.996;2022-07-29T03:07:29;98325.06;;;16.69;43.39
39357;BME280;25077;50.302;18.996;2022-07-29T03:10:32;98319.97;;;16.71;42.97
39357;BME280;25077;50.302;18.996;2022-07-29T03:13:35;98324.25;;;16.72;43.31
39357;BME280;25077;50.302;18.996;2022-07-29T03:16:37;98324.66;;;16.74;42.47
39357;BME280;25077;50.302;18.996;2022-07-29T03:19:41;98316.44;;;16.74;43.38
39357;BME280;25077;50.302;18.996;2022-07-29T03:22:44;98313.72;;;16.74;42.84
39357;BME280;25077;50.302;18.996;2022-07-29T03:25:47;98310.22;;;16.74;43.21
39357;BME280;25077;50.302;18.996;2022-07-29T03:28:49;98310.22;;;16.70;43.52
39357;BME280;25077;50.302;18.996;2022-07-29T03:31:51;98317.63;;;16.70;43.55
39357;BME280;25077;50.302;18.996;2022-07-29T03:34:54;98313.34;;;16.69;43.15
39357;BME280;25077;50.302;18.996;2022-07-29T03:37:56;98314.13;;;16.69;43.10
39357;BME280;25077;50.302;18.996;2022-07-29T03:41:00;98311.75;;;16.71;43.80
39357;BME280;25077;50.302;18.996;2022-07-29T03:44:04;98323.06;;;16.73;43.62
39357;BME280;25077;50.302;18.996;2022-07-29T03:47:08;98323.47;;;16.75;43.16
39357;BME280;25077;50.302;18.996;2022-07-29T03:50:14;98319.13;;;16.81;43.72
39357;BME280;25077;50.302;18.996;2022-07-29T03:53:16;98316.78;;;16.83;43.27
39357;BME280;25077;50.302;18.996;2022-07-29T03:56:21;98309.75;;;16.82;43.53
39357;BME280;25077;50.302;18.996;2022-07-29T03:59:23;98311.31;;;16.83;43.47
39357;BME280;25077;50.302;18.996;2022-07-29T04:02:25;98310.16;;;16.81;43.37
39357;BME280;25077;50.302;18.996;2022-07-29T04:05:29;98308.19;;;16.81;43.14
39357;BME280;25077;50.302;18.996;2022-07-29T04:08:31;98307.03;;;16.82;43.71
39357;BME280;25077;50.302;18.996;2022-07-29T04:11:33;98310.94;;;16.81;43.78
39357;BME280;25077;50.302;18.996;2022-07-29T04:14:36;98316.41;;;16.81;43.40
39357;BME280;25077;50.302;18.996;2022-07-29T04:17:38;98321.09;;;16.81;44.13
39357;BME280;25077;50.302;18.996;2022-07-29T04:20:41;98323.41;;;16.86;43.95
39357;BME280;25077;50.302;18.996;2022-07-29T04:23:43;98324.94;;;16.94;44.22
39357;BME280;25077;50.302;18.996;2022-07-29T04:26:45;98323.38;;;17.00;44.43
39357;BME280;25077;50.302;18.996;2022-07-29T04:29:47;98332.69;;;17.06;44.28
39357;BME280;25077;50.302;18.996;2022-07-29T04:32:49;98322.50;;;17.14;43.55
39357;BME280;25077;50.302;18.996;2022-07-29T04:35:53;98320.91;;;17.20;43.81
39357;BME280;25077;50.302;18.996;2022-07-29T04:38:55;98322.44;;;17.25;44.17
39357;BME280;25077;50.302;18.996;2022-07-29T04:41:57;98321.22;;;17.29;43.55
39357;BME280;25077;50.302;18.996;2022-07-29T04:44:59;98316.50;;;17.33;43.96
39357;BME280;25077;50.302;18.996;2022-07-29T04:48:01;98321.56;;;17.35;43.96
39357;BME280;25077;50.302;18.996;2022-07-29T04:51:04;98317.63;;;17.40;44.09
39357;BME280;25077;50.302;18.996;2022-07-29T04:54:06;98313.34;;;17.39;43.79
39357;BME280;25077;50.302;18.996;2022-07-29T04:57:08;98306.69;;;17.40;43.69
39357;BME280;25077;50.302;18.996;2022-07-29T05:00:11;98303.53;;;17.41;44.08
39357;BME280;25077;50.302;18.996;2022-07-29T05:03:13;98309.34;;;17.47;44.25
39357;BME280;25077;50.302;18.996;2022-07-29T05:06:16;98301.13;;;17.50;44.67
39357;BME280;25077;50.302;18.996;2022-07-29T05:09:18;98312.84;;;17.51;44.04
39357;BME280;25077;50.302;18.996;2022-07-29T05:12:20;98309.72;;;17.52;44.28
39357;BME280;25077;50.302;18.996;2022-07-29T05:15:22;98309.28;;;17.57;44.05
39357;BME280;25077;50.302;18.996;2022-07-29T05:18:24;98311.16;;;17.64;44.26
39357;BME280;25077;50.302;18.996;2022-07-29T05:21:27;98311.13;;;17.71;44.10
39357;BME280;25077;50.302;18.996;2022-07-29T05:24:29;98318.09;;;17.79;44.86
39357;BME280;25077;50.302;18.996;2022-07-29T05:27:31;98308.25;;;17.85;45.07
39357;BME280;25077;50.302;18.996;2022-07-29T05:30:33;98307.03;;;17.94;44.80
39357;BME280;25077;50.302;18.996;2022-07-29T05:33:35;98311.66;;;18.00;44.47
39357;BME280;25077;50.302;18.996;2022-07-29T05:36:38;98302.59;;;18.07;44.32
39357;BME280;25077;50.302;18.996;2022-07-29T05:39:40;98300.59;;;18.11;45.21
39357;BME280;25077;50.302;18.996;2022-07-29T05:42:42;98301.28;;;18.19;44.46
39357;BME280;25077;50.302;18.996;2022-07-29T05:45:44;98307.84;;;18.28;45.16
39357;BME280;25077;50.302;18.996;2022-07-29T05:48:46;98300.28;;;18.39;44.13
39357;BME280;25077;50.302;18.996;2022-07-29T05:51:50;98294.72;;;18.47;44.63
39357;BME280;25077;50.302;18.996;2022-07-29T05:54:52;98294.63;;;18.54;44.88
39357;BME280;25077;50.302;18.996;2022-07-29T05:57:54;98296.09;;;18.62;45.05
39357;BME280;25077;50.302;18.996;2022-07-29T06:00:56;98292.47;;;18.68;44.95
39357;BME280;25077;50.302;18.996;2022-07-29T06:03:59;98277.88;;;18.79;45.20
39357;BME280;25077;50.302;18.996;2022-07-29T06:07:04;98287.13;;;18.88;44.99
39357;BME280;25077;50.302;18.996;2022-07-29T06:10:07;98287.41;;;18.98;44.52
39357;BME280;25077;50.302;18.996;2022-07-29T06:13:09;98288.50;;;19.04;44.61
39357;BME280;25077;50.302;18.996;2022-07-29T06:16:11;98287.56;;;19.14;44.84
39357;BME280;25077;50.302;18.996;2022-07-29T06:19:13;98297.63;;;19.24;44.46
39357;BME280;25077;50.302;18.996;2022-07-29T06:22:16;98298.63;;;19.34;44.97
39357;BME280;25077;50.302;18.996;2022-07-29T06:25:18;98307.13;;;19.43;44.72
39357;BME280;25077;50.302;18.996;2022-07-29T06:28:20;98307.38;;;19.52;44.40
39357;BME280;25077;50.302;18.996;2022-07-29T06:31:22;98316.66;;;19.62;44.10
39357;BME280;25077;50.302;18.996;2022-07-29T06:34:23;98317.69;;;19.71;43.80
39357;BME280;25077;50.302;18.996;2022-07-29T06:37:28;98315.94;;;19.81;44.89
39357;BME280;25077;50.302;18.996;2022-07-29T06:40:30;98315.38;;;19.90;44.13
39357;BME280;25077;50.302;18.996;2022-07-29T06:43:49;98311.25;;;20.02;44.34
39357;BME280;25077;50.302;18.996;2022-07-29T06:46:51;98307.06;;;20.17;43.59
39357;BME280;25077;50.302;18.996;2022-07-29T06:49:55;98304.03;;;20.31;43.68
39357;BME280;25077;50.302;18.996;2022-07-29T06:52:58;98298.63;;;20.47;43.96
39357;BME280;25077;50.302;18.996;2022-07-29T06:56:00;98306.09;;;20.67;43.36
39357;BME280;25077;50.302;18.996;2022-07-29T06:59:02;98304.19;;;20.84;43.26
39357;BME280;25077;50.302;18.996;2022-07-29T07:02:04;98298.28;;;21.01;42.95
39357;BME280;25077;50.302;18.996;2022-07-29T07:05:08;98297.13;;;21.19;42.62
39357;BME280;25077;50.302;18.996;2022-07-29T07:08:12;98283.38;;;21.35;42.77
39357;BME280;25077;50.302;18.996;2022-07-29T07:11:14;98291.63;;;21.51;42.12
39357;BME280;25077;50.302;18.996;2022-07-29T07:14:16;98290.69;;;21.58;41.84
39357;BME280;25077;50.302;18.996;2022-07-29T07:17:18;98297.53;;;21.66;41.82
39357;BME280;25077;50.302;18.996;2022-07-29T07:20:21;98300.91;;;21.74;41.82
39357;BME280;25077;50.302;18.996;2022-07-29T07:23:24;98301.06;;;21.83;42.16
39357;BME280;25077;50.302;18.996;2022-07-29T07:26:26;98299.19;;;21.96;41.69
39357;BME280;25077;50.302;18.996;2022-07-29T07:29:28;98302.78;;;22.09;41.62
39357;BME280;25077;50.302;18.996;2022-07-29T07:32:30;98298.50;;;22.21;41.33
39357;BME280;25077;50.302;18.996;2022-07-29T07:35:32;98296.69;;;22.31;41.84
39357;BME280;25077;50.302;18.996;2022-07-29T07:38:39;98289.53;;;22.46;41.95
39357;BME280;25077;50.302;18.996;2022-07-29T07:41:40;98283.94;;;22.62;41.44
39357;BME280;25077;50.302;18.996;2022-07-29T07:44:43;98285.88;;;22.78;40.88
39357;BME280;25077;50.302;18.996;2022-07-29T07:47:46;98283.47;;;22.93;40.90
39357;BME280;25077;50.302;18.996;2022-07-29T07:50:48;98293.41;;;23.16;41.33
39357;BME280;25077;50.302;18.996;2022-07-29T07:53:52;98281.69;;;23.25;40.64
39357;BME280;25077;50.302;18.996;2022-07-29T07:56:54;98284.66;;;23.30;40.78
39357;BME280;25077;50.302;18.996;2022-07-29T07:59:56;98270.75;;;23.34;40.97
39357;BME280;25077;50.302;18.996;2022-07-29T08:02:58;98288.78;;;23.38;40.39
39357;BME280;25077;50.302;18.996;2022-07-29T08:06:00;98280.56;;;23.35;41.16
39357;BME280;25077;50.302;18.996;2022-07-29T08:09:03;98278.94;;;23.50;40.53
39357;BME280;25077;50.302;18.996;2022-07-29T08:12:06;98282.00;;;23.52;40.12
39357;BME280;25077;50.302;18.996;2022-07-29T08:15:08;98291.84;;;23.53;40.39
39357;BME280;25077;50.302;18.996;2022-07-29T08:18:10;98283.91;;;23.55;40.19
39357;BME280;25077;50.302;18.996;2022-07-29T08:21:13;98287.66;;;23.61;40.31
39357;BME280;25077;50.302;18.996;2022-07-29T08:24:17;98285.50;;;23.65;39.95
39357;BME280;25077;50.302;18.996;2022-07-29T08:27:36;98283.31;;;23.73;40.44
39357;BME280;25077;50.302;18.996;2022-07-29T08:30:38;98272.66;;;23.84;40.01
39357;BME280;25077;50.302;18.996;2022-07-29T08:33:40;98275.06;;;23.95;40.17
39357;BME280;25077;50.302;18.996;2022-07-29T08:36:42;98273.25;;;24.01;39.68
39357;BME280;25077;50.302;18.996;2022-07-29T08:39:45;98267.81;;;24.10;39.65
39357;BME280;25077;50.302;18.996;2022-07-29T08:42:47;98277.72;;;24.20;39.40
39357;BME280;25077;50.302;18.996;2022-07-29T08:45:50;98283.66;;;24.32;39.18
39357;BME280;25077;50.302;18.996;2022-07-29T08:48:52;98283.72;;;24.41;39.44
39357;BME280;25077;50.302;18.996;2022-07-29T08:51:57;98295.03;;;24.56;38.68
39357;BME280;25077;50.302;18.996;2022-07-29T08:55:01;98289.31;;;24.72;39.15
39357;BME280;25077;50.302;18.996;2022-07-29T08:58:04;98289.84;;;24.89;38.52
39357;BME280;25077;50.302;18.996;2022-07-29T09:01:07;98283.91;;;24.99;38.32
39357;BME280;25077;50.302;18.996;2022-07-29T09:04:12;98283.50;;;25.10;38.27
39357;BME280;25077;50.302;18.996;2022-07-29T09:07:15;98278.00;;;25.19;38.00
39357;BME280;25077;50.302;18.996;2022-07-29T09:10:19;98276.16;;;25.25;38.25
39357;BME280;25077;50.302;18.996;2022-07-29T09:13:21;98282.25;;;25.42;38.19
39357;BME280;25077;50.302;18.996;2022-07-29T09:16:23;98280.31;;;25.70;37.89
39357;BME280;25077;50.302;18.996;2022-07-29T09:19:27;98260.56;;;25.96;37.68
39357;BME280;25077;50.302;18.996;2022-07-29T09:22:29;98263.69;;;26.07;37.72
39357;BME280;25077;50.302;18.996;2022-07-29T09:25:35;98265.38;;;26.23;37.58
39357;BME280;25077;50.302;18.996;2022-07-29T09:28:41;98266.44;;;26.35;36.43
39357;BME280;25077;50.302;18.996;2022-07-29T09:31:47;98271.66;;;26.42;36.85
39357;BME280;25077;50.302;18.996;2022-07-29T09:34:49;98266.44;;;26.35;37.27
39357;BME280;25077;50.302;18.996;2022-07-29T09:37:51;98266.13;;;26.42;37.22
39357;BME280;25077;50.302;18.996;2022-07-29T09:40:57;98263.63;;;26.53;36.12
39357;BME280;25077;50.302;18.996;2022-07-29T09:43:59;98252.81;;;26.64;36.47
39357;BME280;25077;50.302;18.996;2022-07-29T09:47:03;98242.28;;;26.77;36.24
39357;BME280;25077;50.302;18.996;2022-07-29T09:50:07;98237.78;;;26.89;35.42
39357;BME280;25077;50.302;18.996;2022-07-29T09:53:10;98237.38;;;27.05;36.06
39357;BME280;25077;50.302;18.996;2022-07-29T09:56:13;98236.22;;;27.21;35.42
39357;BME280;25077;50.302;18.996;2022-07-29T09:59:16;98241.00;;;27.21;35.87
39357;BME280;25077;50.302;18.996;2022-07-29T10:02:18;98246.38;;;27.33;34.88
39357;BME280;25077;50.302;18.996;2022-07-29T10:05:21;98239.63;;;27.49;34.97
39357;BME280;25077;50.302;18.996;2022-07-29T10:08:25;98240.72;;;27.52;34.52
39357;BME280;25077;50.302;18.996;2022-07-29T10:11:28;98239.22;;;27.42;34.71
39357;BME280;25077;50.302;18.996;2022-07-29T10:14:30;98238.88;;;27.49;34.65
39357;BME280;25077;50.302;18.996;2022-07-29T10:17:33;98236.47;;;27.56;35.31
39357;BME280;25077;50.302;18.996;2022-07-29T10:20:35;98226.00;;;27.75;34.64
39357;BME280;25077;50.302;18.996;2022-07-29T10:23:38;98222.88;;;27.82;34.94
39357;BME280;25077;50.302;18.996;2022-07-29T10:26:43;98217.59;;;27.84;34.30
39357;BME280;25077;50.302;18.996;2022-07-29T10:29:46;98220.22;;;27.88;34.17
39357;BME280;25077;50.302;18.996;2022-07-29T10:33:09;98223.47;;;27.86;33.45
39357;BME280;25077;50.302;18.996;2022-07-29T10:36:25;98223.09;;;27.94;34.96
39357;BME280;25077;50.302;18.996;2022-07-29T10:39:39;98209.59;;;28.16;34.84
39357;BME280;25077;50.302;18.996;2022-07-29T10:42:47;98208.09;;;28.45;33.69
39357;BME280;25077;50.302;18.996;2022-07-29T10:45:57;98209.91;;;28.62;33.94
39357;BME280;25077;50.302;18.996;2022-07-29T10:49:04;98215.22;;;28.96;32.68
39357;BME280;25077;50.302;18.996;2022-07-29T10:52:08;98214.59;;;29.21;33.59
39357;BME280;25077;50.302;18.996;2022-07-29T10:55:30;98205.28;;;29.44;31.69
39357;BME280;25077;50.302;18.996;2022-07-29T10:58:35;98216.94;;;29.63;31.94
39357;BME280;25077;50.302;18.996;2022-07-29T11:01:37;98221.59;;;29.72;31.97
39357;BME280;25077;50.302;18.996;2022-07-29T11:05:01;98212.56;;;29.57;29.70
39357;BME280;25077;50.302;18.996;2022-07-29T11:08:19;98213.50;;;29.54;32.06
39357;BME280;25077;50.302;18.996;2022-07-29T11:11:32;98209.47;;;29.75;31.53
39357;BME280;25077;50.302;18.996;2022-07-29T11:14:57;98201.22;;;29.86;30.52
39357;BME280;25077;50.302;18.996;2022-07-29T11:18:07;98202.72;;;30.08;31.75
39357;BME280;25077;50.302;18.996;2022-07-29T11:21:34;98201.41;;;30.29;30.34
39357;BME280;25077;50.302;18.996;2022-07-29T11:24:37;98198.59;;;30.29;31.30
39357;BME280;25077;50.302;18.996;2022-07-29T11:27:39;98199.91;;;30.08;31.16
39357;BME280;25077;50.302;18.996;2022-07-29T11:30:50;98197.28;;;29.99;30.18
39357;BME280;25077;50.302;18.996;2022-07-29T11:33:52;98202.03;;;29.92;30.69
39357;BME280;25077;50.302;18.996;2022-07-29T11:37:20;98193.47;;;29.96;30.29
39357;BME280;25077;50.302;18.996;2022-07-29T11:40:22;98203.19;;;30.06;31.46
39357;BME280;25077;50.302;18.996;2022-07-29T11:43:47;98188.88;;;30.19;30.53
39357;BME280;25077;50.302;18.996;2022-07-29T11:46:51;98194.94;;;30.43;31.43
39357;BME280;25077;50.302;18.996;2022-07-29T11:49:54;98200.34;;;30.53;31.14
39357;BME280;25077;50.302;18.996;2022-07-29T11:52:57;98196.19;;;30.74;30.90
39357;BME280;25077;50.302;18.996;2022-07-29T11:55:59;98186.59;;;31.18;30.70
39357;BME280;25077;50.302;18.996;2022-07-29T11:59:06;98191.34;;;31.55;30.51
39357;BME280;25077;50.302;18.996;2022-07-29T12:02:11;98189.19;;;31.92;30.19
39357;BME280;25077;50.302;18.996;2022-07-29T12:05:13;98185.66;;;32.14;30.21
39357;BME280;25077;50.302;18.996;2022-07-29T12:08:17;98185.19;;;32.27;29.71
39357;BME280;25077;50.302;18.996;2022-07-29T12:11:20;98179.56;;;32.55;28.95
39357;BME280;25077;50.302;18.996;2022-07-29T12:14:26;98183.66;;;32.54;28.27
39357;BME280;25077;50.302;18.996;2022-07-29T12:17:31;98185.94;;;32.44;28.24
39357;BME280;25077;50.302;18.996;2022-07-29T12:20:33;98182.91;;;32.31;28.04
39357;BME280;25077;50.302;18.996;2022-07-29T12:23:35;98197.63;;;32.15;27.79
39357;BME280;25077;50.302;18.996;2022-07-29T12:26:48;98191.75;;;32.07;28.01
39357;BME280;25077;50.302;18.996;2022-07-29T12:29:57;98187.44;;;32.00;28.17
39357;BME280;25077;50.302;18.996;2022-07-29T12:33:01;98190.22;;;31.89;28.03
39357;BME280;25077;50.302;18.996;2022-07-29T12:36:03;98186.53;;;31.61;28.24
39357;BME280;25077;50.302;18.996;2022-07-29T12:39:05;98187.69;;;31.37;28.04
39357;BME280;25077;50.302;18.996;2022-07-29T12:42:12;98197.72;;;31.12;28.63
39357;BME280;25077;50.302;18.996;2022-07-29T12:45:13;98194.81;;;30.95;28.68
39357;BME280;25077;50.302;18.996;2022-07-29T12:48:32;98188.88;;;30.77;27.30
39357;BME280;25077;50.302;18.996;2022-07-29T12:51:36;98191.34;;;30.69;29.44
39357;BME280;25077;50.302;18.996;2022-07-29T12:54:46;98186.31;;;30.79;28.84
39357;BME280;25077;50.302;18.996;2022-07-29T12:57:49;98186.69;;;30.92;29.03
39357;BME280;25077;50.302;18.996;2022-07-29T13:01:06;98181.59;;;30.96;27.93
39357;BME280;25077;50.302;18.996;2022-07-29T13:04:10;98183.41;;;30.99;28.39
39357;BME280;25077;50.302;18.996;2022-07-29T13:07:12;98172.31;;;31.16;28.69
39357;BME280;25077;50.302;18.996;2022-07-29T13:10:16;98168.34;;;31.28;28.53
39357;BME280;25077;50.302;18.996;2022-07-29T13:13:18;98174.53;;;31.43;28.09
39357;BME280;25077;50.302;18.996;2022-07-29T13:16:20;98169.50;;;31.70;28.40
39357;BME280;25077;50.302;18.996;2022-07-29T13:19:34;98159.44;;;32.12;27.02
39357;BME280;25077;50.302;18.996;2022-07-29T13:22:36;98144.19;;;32.41;28.14
39357;BME280;25077;50.302;18.996;2022-07-29T13:25:38;98142.59;;;32.84;28.19
39357;BME280;25077;50.302;18.996;2022-07-29T13:28:43;98129.50;;;33.26;27.36
39357;BME280;25077;50.302;18.996;2022-07-29T13:31:45;98123.09;;;33.37;27.12
39357;BME280;25077;50.302;18.996;2022-07-29T13:34:49;98125.44;;;33.74;26.57
39357;BME280;25077;50.302;18.996;2022-07-29T13:37:51;98124.34;;;34.19;27.04
39357;BME280;25077;50.302;18.996;2022-07-29T13:40:53;98119.16;;;34.58;26.29
39357;BME280;25077;50.302;18.996;2022-07-29T13:43:55;98111.28;;;34.57;25.88
39357;BME280;25077;50.302;18.996;2022-07-29T13:46:57;98112.50;;;34.61;25.76
39357;BME280;25077;50.302;18.996;2022-07-29T13:50:02;98110.13;;;34.41;25.63
39357;BME280;25077;50.302;18.996;2022-07-29T13:53:04;98108.06;;;34.11;25.91
39357;BME280;25077;50.302;18.996;2022-07-29T13:56:06;98104.47;;;33.81;25.54
39357;BME280;25077;50.302;18.996;2022-07-29T13:59:08;98093.44;;;33.88;26.14
39357;BME280;25077;50.302;18.996;2022-07-29T14:02:11;98087.66;;;34.41;26.13
39357;BME280;25077;50.302;18.996;2022-07-29T14:05:16;98082.09;;;35.28;25.85
39357;BME280;25077;50.302;18.996;2022-07-29T14:08:18;98071.81;;;36.19;25.19
39357;BME280;25077;50.302;18.996;2022-07-29T14:11:20;98068.97;;;37.04;24.86
39357;BME280;25077;50.302;18.996;2022-07-29T14:14:22;98076.84;;;37.66;24.46
39357;BME280;25077;50.302;18.996;2022-07-29T14:17:24;98064.16;;;38.15;23.82
39357;BME280;25077;50.302;18.996;2022-07-29T14:20:28;98065.50;;;38.71;23.32
39357;BME280;25077;50.302;18.996;2022-07-29T14:23:31;98053.09;;;39.18;23.18
39357;BME280;25077;50.302;18.996;2022-07-29T14:26:33;98064.75;;;39.50;22.97
39357;BME280;25077;50.302;18.996;2022-07-29T14:29:35;98053.34;;;39.94;22.35
39357;BME280;25077;50.302;18.996;2022-07-29T14:32:37;98056.75;;;40.31;22.01
39357;BME280;25077;50.302;18.996;2022-07-29T14:35:40;98052.94;;;40.59;20.96
39357;BME280;25077;50.302;18.996;2022-07-29T14:38:42;98057.84;;;40.74;21.48
39357;BME280;25077;50.302;18.996;2022-07-29T14:41:44;98056.16;;;40.63;20.81
39357;BME280;25077;50.302;18.996;2022-07-29T14:44:46;98043.34;;;40.24;20.61
39357;BME280;25077;50.302;18.996;2022-07-29T14:47:50;98045.75;;;39.74;20.73
39357;BME280;25077;50.302;18.996;2022-07-29T14:50:53;98044.59;;;39.69;20.64
39357;BME280;25077;50.302;18.996;2022-07-29T14:53:57;98040.94;;;39.46;20.84
39357;BME280;25077;50.302;18.996;2022-07-29T14:56:59;98037.41;;;38.73;20.92
39357;BME280;25077;50.302;18.996;2022-07-29T15:00:02;98041.53;;;38.36;21.22
39357;BME280;25077;50.302;18.996;2022-07-29T15:03:04;98037.00;;;38.40;21.26
39357;BME280;25077;50.302;18.996;2022-07-29T15:06:08;98033.56;;;38.34;21.07
39357;BME280;25077;50.302;18.996;2022-07-29T15:09:10;98036.22;;;37.69;21.15
39357;BME280;25077;50.302;18.996;2022-07-29T15:12:12;98030.13;;;36.84;20.69
39357;BME280;25077;50.302;18.996;2022-07-29T15:15:14;98050.75;;;35.75;21.58
39357;BME280;25077;50.302;18.996;2022-07-29T15:18:16;98052.31;;;34.76;22.04
39357;BME280;25077;50.302;18.996;2022-07-29T15:21:19;98058.31;;;33.76;23.28
39357;BME280;25077;50.302;18.996;2022-07-29T15:24:21;98067.69;;;32.85;23.30
39357;BME280;25077;50.302;18.996;2022-07-29T15:27:23;98068.03;;;32.03;24.67
39357;BME280;25077;50.302;18.996;2022-07-29T15:30:26;98069.16;;;31.29;24.98
39357;BME280;25077;50.302;18.996;2022-07-29T15:33:28;98076.03;;;30.74;25.31
39357;BME280;25077;50.302;18.996;2022-07-29T15:36:31;98080.84;;;30.31;26.03
39357;BME280;25077;50.302;18.996;2022-07-29T15:39:33;98076.19;;;29.90;26.41
39357;BME280;25077;50.302;18.996;2022-07-29T15:42:35;98076.53;;;29.52;26.82
39357;BME280;25077;50.302;18.996;2022-07-29T15:45:38;98074.63;;;29.17;27.32
39357;BME280;25077;50.302;18.996;2022-07-29T15:48:41;98079.78;;;28.83;27.69
39357;BME280;25077;50.302;18.996;2022-07-29T15:51:44;98083.50;;;28.60;27.72
39357;BME280;25077;50.302;18.996;2022-07-29T15:54:46;98080.66;;;28.39;28.34
39357;BME280;25077;50.302;18.996;2022-07-29T15:57:48;98076.25;;;28.18;28.53
39357;BME280;25077;50.302;18.996;2022-07-29T16:00:50;98084.56;;;27.98;28.71
39357;BME280;25077;50.302;18.996;2022-07-29T16:03:52;98075.72;;;27.84;29.45